»·PEaware :: RNGR808 KEFD-KNGP

RNGR808 :: KEFD-KNGP

FLIGHT INFORMATION

Flight Status: Arrived
Operator: Unknown
More flights by this operator :: More flights under this callsign
Pilot: USN Avenger (31125)
Aircraft: BEECH AIRCRAFT T-6A TEXAN
(TEX2)
More flights by this aircraft type
Origin: KEFD Ellington
United States
Destination: KNGP Corpus Christi NAS/Truax
United States
More flights between these airports :: More routes between these airports
Route: SKUBA PSX CRP
File this flight plan on PilotEdge
Remarks: REQUEST DCT TYSON FOR RNAV RWY 36 FULL STOP
Altitude:
(Current/Filed)
15,000ft
Speed:
(Current/Filed)
200kts
Departed: 04-Dec-23 02:43 PM
Arrived: 04-Dec-23 03:36 PM
Distance/Time
Traveled:
161nm/0:53
Distance/Time
To Go:
Arrived

Flight Plot

Page will automatically refresh every two minutes.

Flight plan parsing failed; only flown route is shown


Map Options




Map Legend


Flown Route
Filed Route
Departure Airport
Arrival Airport
Navaid (VOR, NDB)
Fix

Horizontal Profiles

Position Reports

Time Latitude Longitude Heading Altitude Ground
Speed
04-Dec-23 14:29 29.594027 -95.163829 358 36ft 0kts
04-Dec-23 14:30 29.594028 -95.163829 358 36ft 0kts
04-Dec-23 14:31 29.594030 -95.163829 358 36ft 0kts
04-Dec-23 14:32 29.594032 -95.163829 358 36ft 0kts
04-Dec-23 14:33 29.594033 -95.163830 358 36ft 0kts
04-Dec-23 14:34 29.595252 -95.163918 353 36ft 6kts
04-Dec-23 14:41 29.594001 -95.163829 358 36ft 0kts
04-Dec-23 14:42 29.599295 -95.163928 358 37ft 107kts
04-Dec-23 14:43 29.641136 -95.164455 359 1978ft 173kts
04-Dec-23 14:44 29.650352 -95.201835 228 4625ft 172kts
04-Dec-23 14:45 29.618446 -95.245921 231 7114ft 187kts
04-Dec-23 14:46 29.584337 -95.291856 226 9656ft 189kts
04-Dec-23 14:47 29.547406 -95.337272 226 11811ft 201kts
04-Dec-23 14:48 29.511275 -95.385244 228 14066ft 197kts
04-Dec-23 14:49 29.470249 -95.437977 229 14759ft 251kts
04-Dec-23 14:50 29.420471 -95.501753 226 14834ft 280kts
04-Dec-23 14:51 29.367358 -95.569318 230 14870ft 288kts
04-Dec-23 14:52 29.315155 -95.639140 225 14905ft 290kts
04-Dec-23 14:53 29.261340 -95.708854 230 14841ft 291kts
04-Dec-23 14:54 29.207168 -95.777213 224 14944ft 288kts
04-Dec-23 14:55 29.150701 -95.842576 226 15024ft 289kts
04-Dec-23 14:56 29.095307 -95.910869 226 14878ft 293kts
04-Dec-23 14:57 29.039793 -95.978885 226 14874ft 292kts
04-Dec-23 14:58 28.984688 -96.046538 226 14871ft 292kts
04-Dec-23 14:59 28.928378 -96.113225 226 14895ft 291kts
04-Dec-23 15:00 28.872885 -96.180871 225 14882ft 292kts
04-Dec-23 15:01 28.815006 -96.245596 223 14877ft 292kts
04-Dec-23 15:02 28.760507 -96.314044 229 14916ft 290kts
04-Dec-23 15:03 28.708792 -96.384896 228 14919ft 291kts
04-Dec-23 15:04 28.655842 -96.455253 231 14869ft 292kts
04-Dec-23 15:05 28.602020 -96.524886 228 14818ft 292kts
04-Dec-23 15:06 28.549761 -96.595447 229 14836ft 292kts
04-Dec-23 15:07 28.498036 -96.666204 229 14861ft 291kts
04-Dec-23 15:08 28.445188 -96.736303 229 14845ft 292kts
04-Dec-23 15:09 28.394744 -96.808355 230 14890ft 290kts
04-Dec-23 15:10 28.344141 -96.880503 232 14791ft 294kts
04-Dec-23 15:11 28.290685 -96.949246 225 14920ft 291kts
04-Dec-23 15:12 28.236394 -97.017920 231 14812ft 294kts
04-Dec-23 15:13 28.182443 -97.086592 228 14903ft 291kts
04-Dec-23 15:14 28.126431 -97.152913 226 14920ft 290kts
04-Dec-23 15:15 28.073094 -97.222302 227 14901ft 291kts
04-Dec-23 15:16 28.018914 -97.289362 228 12870ft 278kts
04-Dec-23 15:17 27.971119 -97.354221 223 8983ft 259kts
04-Dec-23 15:18 27.907692 -97.342745 152 5269ft 238kts
04-Dec-23 15:19 27.851164 -97.312686 154 3173ft 214kts
04-Dec-23 15:20 27.797633 -97.283201 153 2829ft 207kts
04-Dec-23 15:21 27.747795 -97.254294 152 2317ft 197kts
04-Dec-23 15:22 27.698299 -97.227008 150 1825ft 197kts
04-Dec-23 15:23 27.649787 -97.195716 151 1906ft 208kts
04-Dec-23 15:24 27.602468 -97.165953 149 1890ft 162kts
04-Dec-23 15:25 27.564313 -97.141986 149 1842ft 154kts
04-Dec-23 15:26 27.533391 -97.108951 134 1844ft 155kts
04-Dec-23 15:27 27.506350 -97.072422 90 1850ft 155kts
04-Dec-23 15:28 27.532978 -97.076379 286 1830ft 154kts
04-Dec-23 15:30 27.547633 -97.121871 299 1863ft 154kts
04-Dec-23 15:31 27.575783 -97.158265 314 1408ft 148kts
04-Dec-23 15:32 27.601522 -97.186078 313 1377ft 120kts
04-Dec-23 15:33 27.625511 -97.212974 316 1491ft 123kts
04-Dec-23 15:34 27.649008 -97.239724 316 557ft 118kts
04-Dec-23 15:35 27.672451 -97.265901 315 337ft 117kts
04-Dec-23 15:36 27.691463 -97.287377 313 22ft 29kts

Navigation Log

Ident Type
Flight plan parsing failed, navigation log unavailable